Time;durP1;ratioP1;P1;durP2;ratioP2;P2;SDS_P1;SDS_P2;PMS_P1;PMS_P2;Temp;Humidity;BMP_temperature;BMP_pressure;BME280_temperature;BME280_humidity;BME280_pressure;Samples;Min_cycle;Max_cycle;Signal;HPM_P1;HPM_P2
2022/06/08 07:29:06;;;;;;;25.70;16.40;;;;;;;23.99;60.98;98445.09;105999;1276;110198;-68
2022/06/08 07:31:35;;;;;;;25.50;16.30;;;;;;;25.39;59.65;98437.91;105924;1277;96069;-70
2022/06/08 07:34:03;;;;;;;23.20;15.90;;;;;;;26.56;59.53;98431.73;105723;1281;107614;-69
2022/06/08 07:36:32;;;;;;;23.30;15.10;;;;;;;27.03;59.69;98430.84;105759;1281;95245;-69
2022/06/08 07:39:04;;;;;;;21.00;13.90;;;;;;;26.89;60.09;98432.23;105884;1278;98675;-68
2022/06/08 07:41:31;;;;;;;22.00;14.70;;;;;;;27.28;59.07;98433.11;105843;1278;112418;-70
2022/06/08 07:43:59;;;;;;;24.70;13.90;;;;;;;28.51;58.12;98428.17;105852;1277;97522;-69
2022/06/08 07:46:31;;;;;;;21.70;13.60;;;;;;;29.67;58.04;98421.92;105830;1277;107755;-69
2022/06/08 07:51:52;;;;;;;20.70;13.70;;;;;;;32.12;57.07;98424.45;105820;1277;97889;-70
2022/06/08 07:54:28;;;;;;;21.40;13.20;;;;;;;32.76;57.23;98421.55;105805;1281;111397;-71
2022/06/08 07:56:59;;;;;;;21.60;12.60;;;;;;;32.84;57.30;98427.52;105903;1278;98388;-70
2022/06/08 07:59:31;;;;;;;21.20;12.40;;;;;;;33.30;55.97;98427.42;105596;1278;107743;-70
2022/06/08 08:01:58;;;;;;;19.20;11.60;;;;;;;33.96;55.62;98426.02;105784;1278;99119;-70
2022/06/08 08:04:29;;;;;;;20.70;12.20;;;;;;;34.53;54.99;98420.86;105951;1278;97921;-71
2022/06/08 08:07:03;;;;;;;17.10;11.40;;;;;;;35.16;55.04;98427.15;105909;1278;111516;-71
2022/06/08 08:09:33;;;;;;;22.10;11.90;;;;;;;35.67;54.30;98428.79;105862;1278;96994;-72
2022/06/08 08:12:05;;;;;;;18.10;11.50;;;;;;;35.95;53.96;98427.09;105892;1278;107823;-71
2022/06/08 08:14:35;;;;;;;20.50;12.40;;;;;;;36.10;53.48;98425.88;105857;1278;97965;-71
2022/06/08 08:17:06;;;;;;;19.20;12.60;;;;;;;36.38;53.11;98428.67;105941;1278;98023;-72
2022/06/08 08:19:41;;;;;;;19.00;12.70;;;;;;;36.30;52.40;98434.36;105940;1281;111626;-71
2022/06/08 08:22:09;;;;;;;18.80;11.40;;;;;;;36.70;52.09;98435.98;105997;1278;98476;-72
2022/06/08 08:24:40;;;;;;;21.00;12.40;;;;;;;37.17;51.54;98434.75;105916;1278;107822;-71
2022/06/08 08:27:08;;;;;;;21.40;12.90;;;;;;;37.37;51.03;98438.29;105833;1277;96303;-73
2022/06/08 08:29:36;;;;;;;19.50;11.80;;;;;;;37.33;50.22;98434.74;105909;1278;97848;-73
2022/06/08 08:32:09;;;;;;;16.50;10.40;;;;;;;37.21;49.70;98435.92;105794;1278;111078;-71
2022/06/08 08:34:37;;;;;;;18.60;11.50;;;;;;;37.33;49.34;98436.81;105785;1281;98584;-73
2022/06/08 08:37:07;;;;;;;19.70;10.90;;;;;;;37.52;48.98;98433.95;105884;1278;107868;-71
2022/06/08 08:39:37;;;;;;;17.00;10.00;;;;;;;37.75;48.27;98432.95;105742;1280;97895;-71
2022/06/08 08:42:21;;;;;;;15.70;10.40;;;;;;;37.89;47.78;98431.35;105852;1277;96511;-71
2022/06/08 08:45:07;;;;;;;18.10;10.80;;;;;;;38.12;47.07;98430.61;105797;1277;111529;-71
2022/06/08 08:47:34;;;;;;;17.90;11.40;;;;;;;38.01;46.30;98433.85;105792;1279;98462;-71
2022/06/08 08:50:24;;;;;;;15.30;11.10;;;;;;;37.43;46.41;98430.77;105763;1278;108349;-71
2022/06/08 08:53:23;;;;;;;16.60;10.90;;;;;;;37.24;45.68;98429.55;105764;1281;97888;-71
2022/06/08 08:55:56;;;;;;;17.60;10.90;;;;;;;37.19;45.01;98429.89;105822;1277;97887;-71
2022/06/08 08:58:35;;;;;;;15.80;9.70;;;;;;;37.37;44.65;98429.26;105828;1277;109806;-72
2022/06/08 09:01:23;;;;;;;17.00;11.30;;;;;;;37.26;43.84;98430.11;105757;1277;98405;-71
2022/06/08 09:04:21;;;;;;;18.40;10.30;;;;;;;37.28;43.94;98429.42;105910;1277;106819;-70
2022/06/08 09:06:54;;;;;;;15.60;10.10;;;;;;;37.24;43.36;98426.77;105976;1277;97922;-71
2022/06/08 09:09:30;;;;;;;17.30;10.00;;;;;;;37.43;43.30;98423.17;105851;1280;98021;-71
2022/06/08 09:11:58;;;;;;;16.90;10.00;;;;;;;37.30;42.59;98418.95;105792;1278;111573;-71
2022/06/08 09:14:50;;;;;;;18.10;10.80;;;;;;;37.15;42.25;98414.50;105862;1277;98392;-72
2022/06/08 09:17:32;;;;;;;17.10;10.80;;;;;;;37.34;42.21;98421.10;105779;1278;107611;-71
2022/06/08 09:20:24;;;;;;;18.00;11.40;;;;;;;37.48;41.88;98412.02;105738;1277;97854;-71
2022/06/08 09:22:55;;;;;;;17.40;10.80;;;;;;;37.54;41.50;98414.33;105826;1277;97883;-71
2022/06/08 09:25:33;;;;;;;18.50;11.00;;;;;;;37.61;41.55;98417.14;105852;1277;110631;-71
2022/06/08 09:28:03;;;;;;;17.20;10.10;;;;;;;37.65;41.01;98414.66;105926;1277;98467;-72
2022/06/08 09:30:47;;;;;;;18.40;11.10;;;;;;;37.59;40.84;98410.13;105966;1277;108049;-73
2022/06/08 09:33:27;;;;;;;17.00;10.40;;;;;;;37.27;40.70;98406.03;105920;1280;97967;-71
2022/06/08 09:36:00;;;;;;;18.60;10.60;;;;;;;36.87;40.32;98409.33;105815;1279;96461;-71
2022/06/08 09:38:34;;;;;;;19.10;11.40;;;;;;;36.68;40.31;98411.09;105954;1277;111283;-72
2022/06/08 09:41:25;;;;;;;21.30;11.00;;;;;;;36.34;40.01;98410.67;105880;1277;98938;-72
2022/06/08 09:44:10;;;;;;;17.60;10.80;;;;;;;36.35;39.53;98406.95;105730;1278;107815;-71
2022/06/08 09:52:29;;;;;;;;;;;;;;;34.53;38.87;98412.78;105884;1279;111382;-71
2022/06/08 09:55:29;;;;;;;18.70;11.60;;;;;;;33.97;39.05;98411.41;105916;1278;98031;-71
2022/06/08 09:58:28;;;;;;;18.50;11.40;;;;;;;33.45;38.51;98412.64;105867;1277;107741;-71
2022/06/08 10:01:14;;;;;;;19.00;12.20;;;;;;;33.03;38.70;98416.04;105960;1277;97993;-72
2022/06/08 10:04:14;;;;;;;20.60;12.60;;;;;;;32.60;38.45;98417.84;105981;1277;95497;-71
2022/06/08 10:07:06;;;;;;;21.80;13.90;;;;;;;32.01;38.28;98417.70;105861;1280;111484;-70
2022/06/08 10:09:43;;;;;;;23.40;15.60;;;;;;;31.27;38.19;98412.31;105831;1278;96078;-70
2022/06/08 10:12:48;;;;;;;21.90;13.70;;;;;;;30.87;38.12;98409.28;105912;1277;107416;-72
2022/06/08 10:15:32;;;;;;;21.40;15.00;;;;;;;30.42;38.38;98405.55;105872;1278;97972;-71
2022/06/08 10:18:24;;;;;;;24.40;14.80;;;;;;;30.14;38.49;98406.55;105693;1279;97948;-71
2022/06/08 10:21:04;;;;;;;21.20;14.10;;;;;;;29.97;38.66;98407.33;105950;1278;111460;-71
2022/06/08 10:24:06;;;;;;;21.50;14.50;;;;;;;29.72;38.56;98410.38;105978;1277;97781;-70
2022/06/08 10:26:43;;;;;;;23.80;15.60;;;;;;;29.29;38.61;98413.92;105820;1278;107412;-72
2022/06/08 10:29:42;;;;;;;23.50;15.80;;;;;;;28.90;38.53;98409.80;105720;1278;96389;-70
2022/06/08 10:32:21;;;;;;;22.80;15.10;;;;;;;28.60;38.90;98406.95;105913;1277;95607;-70
2022/06/08 10:34:54;;;;;;;22.20;13.90;;;;;;;28.63;39.15;98405.74;105878;1278;113639;-70
2022/06/08 10:37:43;;;;;;;22.10;14.20;;;;;;;28.63;39.36;98404.48;105867;1278;97618;-70
2022/06/08 10:40:24;;;;;;;24.00;15.20;;;;;;;28.56;39.29;98403.32;105855;1279;107688;-71
2022/06/08 10:42:55;;;;;;;28.10;15.00;;;;;;;28.25;39.28;98410.51;105782;1278;96382;-69
2022/06/08 10:45:23;;;;;;;22.70;15.10;;;;;;;28.00;39.80;98408.50;105852;1277;97503;-70
2022/06/08 10:47:59;;;;;;;23.20;15.90;;;;;;;27.82;39.58;98409.30;105941;1277;112141;-71
2022/06/08 10:50:30;;;;;;;23.30;15.50;;;;;;;27.55;40.06;98407.78;105949;1277;96350;-70
2022/06/08 10:56:47;;;;;;;25.10;16.40;;;;;;;27.16;40.02;98401.35;105843;1277;97961;-69
2022/06/08 10:59:30;;;;;;;21.70;14.60;;;;;;;26.88;40.79;98398.92;105867;1278;97918;-70
2022/06/08 11:02:15;;;;;;;23.30;14.10;;;;;;;26.71;40.91;98401.95;105850;1277;112057;-69
2022/06/08 11:05:17;;;;;;;21.60;14.20;;;;;;;26.65;41.25;98399.08;105873;1277;96497;-70
2022/06/08 11:08:06;;;;;;;26.80;15.70;;;;;;;26.55;41.23;98393.60;105858;1277;107575;-70
2022/06/08 11:10:43;;;;;;;23.10;15.40;;;;;;;26.55;41.68;98385.62;105821;1278;96649;-69
2022/06/08 11:13:25;;;;;;;22.40;13.40;;;;;;;26.56;41.84;98386.25;105896;1278;97895;-69
2022/06/08 11:16:10;;;;;;;23.90;15.00;;;;;;;26.59;42.16;98383.89;105979;1277;111846;-71
2022/06/08 11:19:17;;;;;;;22.10;14.80;;;;;;;26.64;42.08;98381.76;105814;1279;98039;-71
2022/06/08 11:21:57;;;;;;;24.10;15.10;;;;;;;26.60;42.33;98375.78;105864;1277;107464;-71
2022/06/08 11:24:36;;;;;;;23.80;14.60;;;;;;;26.57;42.45;98378.55;105870;1277;97999;-71
2022/06/08 11:27:10;;;;;;;24.60;15.10;;;;;;;26.56;42.77;98374.30;105798;1277;96168;-71
2022/06/08 11:29:46;;;;;;;22.70;13.90;;;;;;;26.59;42.88;98372.27;105604;1277;111279;-70
2022/06/08 11:32:32;;;;;;;28.40;17.50;;;;;;;26.72;43.08;98372.79;105631;1278;98399;-70
2022/06/08 11:35:18;;;;;;;23.70;15.60;;;;;;;26.73;42.90;98372.61;105796;1279;107707;-70
2022/06/08 11:37:59;;;;;;;21.30;13.50;;;;;;;26.63;43.08;98372.42;105943;1277;95325;-69
2022/06/08 11:40:33;;;;;;;22.10;13.40;;;;;;;26.62;43.38;98368.29;105813;1277;98002;-69
2022/06/08 11:43:15;;;;;;;21.60;12.10;;;;;;;26.63;43.31;98364.24;105739;1278;111446;-68
2022/06/08 11:45:51;;;;;;;19.50;11.80;;;;;;;26.65;43.38;98358.93;105809;1278;98002;-70
2022/06/08 11:48:26;;;;;;;20.00;11.90;;;;;;;26.70;43.72;98360.77;105806;1278;107968;-69
2022/06/08 11:51:00;;;;;;;19.70;10.90;;;;;;;26.81;43.64;98361.58;105711;1279;97848;-68
2022/06/08 11:53:29;;;;;;;20.50;11.60;;;;;;;26.92;43.87;98361.20;105862;1279;97912;-68
2022/06/08 11:56:29;;;;;;;17.60;10.80;;;;;;;27.02;43.94;98354.66;105773;1279;112008;-69
2022/06/08 11:59:04;;;;;;;18.70;9.50;;;;;;;27.13;43.71;98357.10;105823;1279;95650;-69
2022/06/08 12:01:42;;;;;;;19.60;9.80;;;;;;;27.26;43.84;98349.86;105839;1279;106787;-69
2022/06/08 12:04:22;;;;;;;18.20;10.40;;;;;;;27.40;43.78;98350.39;105837;1279;97948;-69
2022/06/08 12:06:53;;;;;;;20.10;10.30;;;;;;;27.53;43.91;98343.88;105912;1277;97881;-69
2022/06/08 12:09:32;;;;;;;21.80;11.40;;;;;;;27.51;43.87;98341.92;105881;1277;112113;-69
2022/06/08 12:12:15;;;;;;;18.00;11.00;;;;;;;27.49;43.71;98338.46;105900;1277;97986;-69
2022/06/08 12:14:43;;;;;;;21.60;10.80;;;;;;;27.50;44.03;98336.84;105876;1277;108370;-69
2022/06/08 12:17:11;;;;;;;17.60;10.20;;;;;;;27.51;44.11;98336.95;105922;1276;96542;-68
2022/06/08 12:19:48;;;;;;;18.60;10.30;;;;;;;27.48;43.95;98336.45;105966;1277;95917;-68
2022/06/08 12:22:24;;;;;;;19.80;9.90;;;;;;;27.44;44.07;98324.55;105823;1279;112260;-70
2022/06/08 12:25:23;;;;;;;20.10;10.50;;;;;;;27.43;44.22;98320.92;105961;1277;98334;-73
2022/06/08 12:28:16;;;;;;;19.20;11.20;;;;;;;27.47;44.21;98318.15;105921;1277;107796;-69
2022/06/08 12:30:47;;;;;;;20.80;11.30;;;;;;;27.51;44.23;98319.70;105701;1279;97893;-69
2022/06/08 12:33:16;;;;;;;19.20;11.30;;;;;;;27.56;44.36;98320.58;105912;1279;97896;-70
2022/06/08 12:35:57;;;;;;;20.90;11.70;;;;;;;27.57;44.40;98319.89;105844;1277;109998;-69
2022/06/08 12:38:28;;;;;;;17.80;10.40;;;;;;;27.54;44.28;98313.30;105846;1277;98008;-69
2022/06/08 12:41:02;;;;;;;19.00;10.90;;;;;;;27.54;44.22;98306.88;105817;1277;107596;-69
2022/06/08 12:43:35;;;;;;;18.10;10.40;;;;;;;27.55;44.37;98304.39;105746;1279;98581;-69
2022/06/08 12:46:13;;;;;;;18.80;9.10;;;;;;;27.54;44.48;98301.41;105824;1277;97887;-69
2022/06/08 12:48:55;;;;;;;18.10;9.60;;;;;;;27.52;44.22;98300.98;105864;1277;111092;-68
2022/06/08 12:51:29;;;;;;;21.80;10.90;;;;;;;27.49;44.24;98294.39;105882;1277;97522;-69
2022/06/08 12:53:59;;;;;;;17.70;10.50;;;;;;;27.47;44.53;98294.96;105828;1278;107731;-70
2022/06/08 12:56:29;;;;;;;17.70;9.30;;;;;;;27.42;44.03;98292.02;105883;1277;97967;-69
2022/06/08 12:58:58;;;;;;;16.70;10.60;;;;;;;27.40;44.32;98294.27;105880;1277;97910;-70
2022/06/08 13:01:29;;;;;;;17.80;10.50;;;;;;;27.41;44.30;98292.04;105936;1277;112129;-70
2022/06/08 13:03:59;;;;;;;16.70;10.10;;;;;;;27.46;44.25;98292.33;105944;1277;98336;-69
2022/06/08 13:06:28;;;;;;;18.00;9.80;;;;;;;27.50;44.60;98295.59;105875;1278;107876;-68
2022/06/08 13:08:58;;;;;;;17.60;9.40;;;;;;;27.53;44.52;98296.79;105818;1277;97922;-69
2022/06/08 13:11:29;;;;;;;20.90;9.80;;;;;;;27.58;44.45;98297.98;105836;1277;97953;-69
2022/06/08 13:13:58;;;;;;;21.90;10.70;;;;;;;27.59;44.41;98294.84;105948;1277;111464;-69
2022/06/08 13:16:30;;;;;;;17.30;9.50;;;;;;;27.57;44.40;98293.54;105893;1278;99120;-69
2022/06/08 13:18:58;;;;;;;19.60;10.20;;;;;;;27.56;44.63;98292.33;105832;1279;106724;-69
2022/06/08 13:21:27;;;;;;;20.60;10.00;;;;;;;27.55;44.34;98298.09;105816;1277;95321;-70
2022/06/08 13:23:57;;;;;;;19.50;10.30;;;;;;;27.54;44.47;98297.30;106105;1277;97986;-69
2022/06/08 13:26:28;;;;;;;16.40;9.30;;;;;;;27.51;44.28;98300.81;105959;1277;110408;-69
2022/06/08 13:28:57;;;;;;;16.10;9.50;;;;;;;27.51;44.20;98297.36;105910;1277;98297;-69
2022/06/08 13:31:26;;;;;;;20.70;10.30;;;;;;;27.52;44.03;98298.52;105766;1277;108820;-69
2022/06/08 13:34:04;;;;;;;19.50;10.80;;;;;;;27.54;44.28;98295.23;105936;1278;97896;-69
2022/06/08 13:36:35;;;;;;;18.30;10.10;;;;;;;27.55;44.59;98295.98;105901;1277;97883;-69
2022/06/08 13:39:06;;;;;;;18.80;10.30;;;;;;;27.58;44.62;98298.36;105676;1279;111009;-69
2022/06/08 13:41:38;;;;;;;17.20;9.90;;;;;;;27.59;44.21;98293.33;105774;1279;96394;-69
2022/06/08 13:44:26;;;;;;;19.90;10.00;;;;;;;27.61;44.53;98292.88;105704;1281;107626;-71
2022/06/08 13:47:11;;;;;;;17.20;9.80;;;;;;;27.65;44.34;98284.15;105871;1279;97893;-67
2022/06/08 13:49:48;;;;;;;18.20;10.50;;;;;;;27.66;44.51;98285.98;105912;1279;95224;-69
2022/06/08 13:52:24;;;;;;;19.60;10.00;;;;;;;27.67;44.45;98287.46;105888;1278;111511;-68
2022/06/08 13:54:56;;;;;;;19.90;11.40;;;;;;;27.70;44.53;98280.21;105948;1277;96432;-68
2022/06/08 13:57:26;;;;;;;17.40;10.20;;;;;;;27.71;44.58;98280.49;105924;1277;108558;-69
2022/06/08 13:59:57;;;;;;;21.70;11.40;;;;;;;27.72;44.68;98279.48;105855;1279;98461;-68
2022/06/08 14:02:41;;;;;;;18.40;11.30;;;;;;;27.71;44.60;98284.39;105884;1278;98008;-68
2022/06/08 14:05:18;;;;;;;19.00;11.00;;;;;;;27.70;44.37;98285.39;105907;1278;112099;-68
2022/06/08 14:13:30;;;;;;;17.00;10.70;;;;;;;27.63;44.67;98269.80;105860;1277;97954;-68
2022/06/08 14:16:03;;;;;;;21.10;11.50;;;;;;;27.66;44.43;98267.02;105928;1277;98600;-70
2022/06/08 14:18:50;;;;;;;18.00;10.30;;;;;;;27.71;44.49;98264.31;105875;1279;110174;-69
2022/06/08 14:21:21;;;;;;;22.00;11.00;;;;;;;27.76;44.78;98265.29;106068;1277;98911;-71
2022/06/08 14:23:54;;;;;;;20.80;11.00;;;;;;;27.75;44.73;98264.56;106028;1277;107756;-71
2022/06/08 14:26:26;;;;;;;21.20;11.30;;;;;;;27.67;44.55;98268.34;105978;1277;97910;-74
2022/06/08 14:28:57;;;;;;;19.20;10.70;;;;;;;27.59;44.54;98261.73;106059;1277;98078;-70
2022/06/08 14:31:36;;;;;;;19.90;11.20;;;;;;;27.49;44.70;98258.80;106018;1278;111051;-71
2022/06/08 14:34:26;;;;;;;30.50;11.60;;;;;;;27.38;44.51;98253.05;106024;1277;96576;-70
2022/06/08 14:36:58;;;;;;;20.80;11.00;;;;;;;27.32;44.58;98249.66;105885;1279;107727;-70
2022/06/08 14:39:31;;;;;;;21.00;12.60;;;;;;;27.29;44.71;98252.75;105871;1278;97910;-71
2022/06/08 14:42:01;;;;;;;23.00;13.20;;;;;;;27.30;44.60;98249.66;105941;1277;97765;-71
2022/06/08 14:44:32;;;;;;;21.40;12.40;;;;;;;27.32;44.86;98238.77;106011;1278;111570;-70
2022/06/08 14:47:07;;;;;;;19.20;11.60;;;;;;;27.37;44.63;98240.36;105974;1277;97887;-71
2022/06/08 14:49:37;;;;;;;24.10;11.90;;;;;;;27.41;45.05;98244.48;105880;1279;107719;-70
2022/06/08 14:52:09;;;;;;;19.10;11.50;;;;;;;27.46;44.83;98244.17;105915;1277;95413;-70
2022/06/08 14:54:39;;;;;;;21.10;11.90;;;;;;;27.53;45.04;98243.55;105844;1279;97973;-71
2022/06/08 14:57:21;;;;;;;19.00;11.90;;;;;;;27.57;45.24;98238.20;105879;1278;111472;-71
2022/06/08 14:59:51;;;;;;;26.10;12.30;;;;;;;27.56;44.98;98233.89;106004;1278;97922;-69
2022/06/08 15:02:22;;;;;;;21.70;11.90;;;;;;;27.58;45.07;98231.56;105991;1277;107860;-72
2022/06/08 15:04:53;;;;;;;23.10;13.40;;;;;;;27.60;45.29;98218.13;105910;1277;97768;-73
2022/06/08 15:07:24;;;;;;;20.60;12.70;;;;;;;27.66;45.36;98212.23;105794;1278;97957;-71
2022/06/08 15:09:53;;;;;;;21.80;12.00;;;;;;;27.67;45.38;98204.00;105693;1278;111462;-73
2022/06/08 15:12:29;;;;;;;20.50;13.30;;;;;;;27.71;45.35;98198.33;105824;1278;95555;-71
2022/06/08 15:15:22;;;;;;;19.20;11.70;;;;;;;27.75;45.41;98198.02;105844;1278;107057;-70
2022/06/08 15:17:57;;;;;;;21.00;11.70;;;;;;;27.80;45.44;98190.89;105805;1277;98573;-71
2022/06/08 15:20:32;;;;;;;20.90;11.00;;;;;;;27.81;45.15;98189.72;105861;1279;95328;-72
2022/06/08 15:23:01;;;;;;;18.20;12.10;;;;;;;27.81;44.92;98188.72;105875;1277;111422;-71
2022/06/08 15:25:34;;;;;;;19.40;11.50;;;;;;;27.81;45.42;98188.22;105964;1277;98630;-72
2022/06/08 15:28:22;;;;;;;23.70;11.90;;;;;;;27.77;45.41;98186.36;105790;1280;108044;-74
2022/06/08 15:30:53;;;;;;;17.50;11.30;;;;;;;27.70;45.20;98184.39;105794;1279;98002;-72
2022/06/08 15:33:29;;;;;;;18.90;10.20;;;;;;;27.67;45.28;98185.52;105877;1281;97881;-73
2022/06/08 15:36:10;;;;;;;19.70;11.10;;;;;;;27.65;45.43;98185.43;105827;1281;111620;-72
2022/06/08 15:38:47;;;;;;;18.80;10.20;;;;;;;27.64;45.40;98187.84;105908;1280;98114;-72
2022/06/08 15:41:18;;;;;;;20.10;10.70;;;;;;;27.66;45.22;98193.48;105842;1281;107745;-75
2022/06/08 15:43:46;;;;;;;19.80;10.90;;;;;;;27.67;45.39;98188.59;105880;1281;98008;-72
2022/06/08 15:46:22;;;;;;;18.90;10.90;;;;;;;27.66;45.06;98185.23;105901;1281;97858;-74
2022/06/08 15:48:57;;;;;;;19.10;10.60;;;;;;;27.64;45.30;98178.98;105840;1281;111473;-71
2022/06/08 15:51:30;;;;;;;20.30;10.70;;;;;;;27.63;45.17;98176.34;105874;1281;96859;-72
2022/06/08 15:54:25;;;;;;;16.30;10.00;;;;;;;27.61;45.00;98174.28;105829;1281;107758;-71
2022/06/08 15:57:06;;;;;;;22.00;10.70;;;;;;;27.59;45.04;98172.61;104195;1279;97913;-70
2022/06/08 15:59:52;;;;;;;17.20;10.00;;;;;;;27.57;45.33;98169.34;105887;1281;96439;-70
2022/06/08 16:02:20;;;;;;;20.10;10.60;;;;;;;27.57;45.27;98172.07;105791;1281;110349;-71
2022/06/08 16:04:51;;;;;;;18.00;10.60;;;;;;;27.58;44.93;98172.90;105886;1280;98439;-71
2022/06/08 16:07:20;;;;;;;16.60;10.20;;;;;;;27.56;45.06;98173.41;105875;1279;109002;-70
2022/06/08 16:09:48;;;;;;;17.50;10.30;;;;;;;27.54;45.34;98175.00;105820;1281;96980;-71
2022/06/08 16:12:16;;;;;;;18.90;10.90;;;;;;;27.50;45.15;98174.73;105836;1281;97871;-72
2022/06/08 16:14:46;;;;;;;17.90;10.20;;;;;;;27.45;45.20;98181.48;105819;1281;110919;-71
2022/06/08 16:17:17;;;;;;;18.70;9.80;;;;;;;27.42;44.96;98197.87;105830;1281;98140;-72
2022/06/08 16:19:50;;;;;;;17.90;11.00;;;;;;;27.38;45.06;98197.40;105903;1281;107471;-71
2022/06/08 16:22:18;;;;;;;19.40;10.70;;;;;;;27.35;44.90;98198.05;105887;1281;97872;-72
2022/06/08 16:24:50;;;;;;;17.50;10.10;;;;;;;27.34;45.19;98197.20;105884;1281;95213;-73
2022/06/08 16:27:25;;;;;;;25.20;11.70;;;;;;;27.33;45.11;98199.52;105939;1281;110577;-71
2022/06/08 16:29:53;;;;;;;18.60;10.10;;;;;;;27.28;45.15;98204.31;105870;1281;95538;-71
2022/06/08 16:32:21;;;;;;;24.00;10.50;;;;;;;27.20;45.01;98207.27;105872;1281;107781;-73
2022/06/08 16:34:48;;;;;;;17.70;9.70;;;;;;;27.15;45.26;98207.71;105908;1281;97897;-72
2022/06/08 16:37:19;;;;;;;21.60;9.60;;;;;;;27.14;45.06;98211.50;105913;1281;97913;-72
2022/06/08 16:39:50;;;;;;;19.70;9.40;;;;;;;27.16;45.30;98210.00;105768;1281;111410;-72
2022/06/08 16:42:19;;;;;;;;;;;;;;;27.16;45.34;98204.77;105843;1281;95380;-71
2022/06/08 16:44:47;;;;;;;16.60;9.10;;;;;;;27.13;45.21;98202.52;105868;1280;107559;-71
2022/06/08 16:47:17;;;;;;;20.00;9.20;;;;;;;27.08;45.47;98197.78;105818;1281;95240;-71
2022/06/08 16:49:45;;;;;;;18.60;9.40;;;;;;;27.04;45.46;98197.23;105821;1281;97946;-69
2022/06/08 16:52:13;;;;;;;20.70;9.60;;;;;;;27.03;45.38;98198.13;105825;1281;110924;-70
2022/06/08 16:54:41;;;;;;;20.00;10.20;;;;;;;27.01;45.40;98199.22;105821;1281;95489;-71
2022/06/08 16:59:55;;;;;;;17.50;10.10;;;;;;;26.93;45.48;98208.94;105833;1281;95239;-70
2022/06/08 17:02:29;;;;;;;17.80;9.90;;;;;;;26.88;45.31;98208.61;105900;1281;98010;-70
2022/06/08 17:04:57;;;;;;;26.60;10.20;;;;;;;26.83;45.42;98206.98;105816;1281;111406;-70
2022/06/08 17:07:28;;;;;;;18.30;9.50;;;;;;;26.78;45.42;98204.70;105870;1281;97919;-69
2022/06/08 17:09:55;;;;;;;19.20;9.10;;;;;;;26.72;45.35;98202.34;105891;1281;107061;-72
2022/06/08 17:12:24;;;;;;;21.00;9.80;;;;;;;26.67;45.46;98202.17;105869;1281;97999;-71
2022/06/08 17:14:54;;;;;;;24.00;9.40;;;;;;;26.61;45.17;98201.06;106733;1280;96039;-70
2022/06/08 17:17:25;;;;;;;20.40;9.20;;;;;;;26.56;45.34;98195.20;105836;1281;111395;-69
2022/06/08 17:19:57;;;;;;;19.90;9.40;;;;;;;26.50;45.27;98192.71;105918;1280;98033;-69
2022/06/08 17:22:25;;;;;;;16.90;9.20;;;;;;;26.46;45.43;98191.16;107067;1281;108270;-69
2022/06/08 17:24:53;;;;;;;16.10;8.80;;;;;;;26.41;45.26;98190.77;105604;1281;98005;-71
2022/06/08 17:27:21;;;;;;;19.00;9.70;;;;;;;26.36;45.25;98186.73;105583;1281;97987;-71
2022/06/08 17:29:49;;;;;;;17.80;9.90;;;;;;;26.32;45.49;98187.34;105832;1278;111121;-71
2022/06/08 17:32:19;;;;;;;21.30;10.70;;;;;;;26.27;45.57;98183.16;105901;1279;97734;-72
2022/06/08 17:34:47;;;;;;;19.80;10.90;;;;;;;26.22;45.57;98182.10;105910;1278;107720;-75
2022/06/08 17:37:16;;;;;;;21.20;11.00;;;;;;;26.16;45.59;98182.38;105894;1277;97657;-73
2022/06/08 17:39:44;;;;;;;18.60;11.00;;;;;;;26.09;45.60;98180.33;105855;1278;97940;-75
2022/06/08 17:42:21;;;;;;;17.40;10.10;;;;;;;26.04;45.70;98176.08;105973;1277;111359;-75
2022/06/08 17:44:57;;;;;;;19.50;11.50;;;;;;;25.98;45.85;98178.48;105992;1278;98196;-76
2022/06/08 17:47:27;;;;;;;18.40;10.80;;;;;;;25.91;45.91;98178.34;105880;1278;107789;-74
2022/06/08 17:49:58;;;;;;;21.60;11.60;;;;;;;25.83;45.96;98177.99;105754;1278;97860;-74
2022/06/08 17:52:30;;;;;;;19.90;11.60;;;;;;;25.76;46.08;98182.52;105715;1278;97858;-73
2022/06/08 17:55:00;;;;;;;20.60;12.10;;;;;;;25.71;46.20;98183.58;105860;1277;110391;-73
2022/06/08 17:57:30;;;;;;;20.00;12.10;;;;;;;25.65;46.33;98185.11;105602;1279;97980;-74
2022/06/08 18:00:01;;;;;;;19.90;11.80;;;;;;;25.59;46.42;98182.93;105749;1278;107774;-71
2022/06/08 18:02:29;;;;;;;20.30;12.10;;;;;;;25.53;46.42;98185.72;105927;1278;97903;-73
2022/06/08 18:04:57;;;;;;;19.10;12.40;;;;;;;25.48;46.58;98184.54;105881;1278;95377;-74
2022/06/08 18:07:33;;;;;;;19.90;12.40;;;;;;;25.41;46.67;98190.93;105765;1279;111377;-75
2022/06/08 18:10:00;;;;;;;21.50;12.50;;;;;;;25.36;46.79;98195.34;105998;1278;95868;-73
2022/06/08 18:12:28;;;;;;;19.50;12.20;;;;;;;25.30;46.83;98196.77;105841;1279;107902;-73
2022/06/08 18:14:56;;;;;;;19.70;12.30;;;;;;;25.22;46.93;98206.62;105878;1279;97999;-71
2022/06/08 18:17:25;;;;;;;20.90;12.40;;;;;;;25.16;46.98;98209.41;105905;1279;98006;-74
2022/06/08 18:19:56;;;;;;;22.20;13.10;;;;;;;25.09;47.13;98212.80;105929;1278;111419;-71
2022/06/08 18:22:24;;;;;;;21.30;13.40;;;;;;;25.02;47.28;98212.77;105968;1277;98054;-72
2022/06/08 18:24:52;;;;;;;24.30;13.10;;;;;;;24.95;47.25;98210.83;105991;1279;107493;-73
2022/06/08 18:27:34;;;;;;;22.40;13.40;;;;;;;24.88;47.39;98210.56;105896;1277;95996;-74
2022/06/08 18:30:05;;;;;;;28.90;13.30;;;;;;;24.81;47.53;98215.79;106007;1277;95303;-72
2022/06/08 18:32:35;;;;;;;22.10;13.20;;;;;;;24.75;47.63;98214.46;105938;1277;112316;-73
2022/06/08 18:35:03;;;;;;;24.60;13.50;;;;;;;24.68;47.71;98217.88;105942;1278;97708;-75
2022/06/08 18:37:35;;;;;;;22.90;14.70;;;;;;;24.63;47.73;98218.54;105873;1279;107872;-75
2022/06/08 18:40:04;;;;;;;26.00;14.90;;;;;;;24.57;47.84;98221.23;105852;1279;97987;-70
2022/06/08 18:42:32;;;;;;;24.50;14.00;;;;;;;24.50;48.04;98227.05;105985;1276;97902;-71
2022/06/08 18:45:00;;;;;;;24.30;15.50;;;;;;;24.43;47.93;98231.77;105920;1278;111422;-72
2022/06/08 18:47:28;;;;;;;22.80;14.80;;;;;;;24.32;48.15;98237.06;105927;1279;97970;-71
2022/06/08 18:49:56;;;;;;;24.10;14.40;;;;;;;24.23;48.21;98238.77;105946;1279;107792;-71
2022/06/08 18:52:28;;;;;;;24.70;14.20;;;;;;;24.14;48.51;98238.87;105922;1277;97913;-68
2022/06/08 18:54:58;;;;;;;23.30;13.90;;;;;;;24.07;48.54;98243.31;105965;1278;98001;-70
2022/06/08 18:57:25;;;;;;;23.00;15.10;;;;;;;24.01;48.68;98244.20;105984;1277;109736;-71
2022/06/08 18:59:53;;;;;;;24.90;15.00;;;;;;;23.95;48.81;98247.66;105941;1277;98489;-72
2022/06/08 19:02:24;;;;;;;27.10;14.60;;;;;;;23.90;48.84;98253.67;105906;1279;107757;-72
2022/06/08 19:04:52;;;;;;;22.40;14.40;;;;;;;23.86;48.99;98255.87;105939;1277;97871;-71
2022/06/08 19:07:20;;;;;;;26.20;14.80;;;;;;;23.81;48.91;98257.16;106037;1278;97906;-70
2022/06/08 19:09:49;;;;;;;24.10;15.30;;;;;;;23.75;49.31;98260.77;105949;1279;111372;-70
2022/06/08 19:12:17;;;;;;;23.20;14.40;;;;;;;23.70;49.14;98261.52;106001;1278;98036;-70
2022/06/08 19:14:49;;;;;;;21.60;13.90;;;;;;;23.64;49.49;98262.17;105927;1278;107581;-72
2022/06/08 19:17:18;;;;;;;31.90;15.90;;;;;;;23.57;49.35;98266.59;105794;1277;97902;-71
2022/06/08 19:22:33;;;;;;;27.10;17.80;;;;;;;23.40;49.72;98270.77;105642;1277;111443;-71
2022/06/08 19:25:01;;;;;;;27.70;17.80;;;;;;;23.33;49.72;98267.35;105874;1278;96051;-71
2022/06/08 19:27:28;;;;;;;27.90;16.90;;;;;;;23.22;49.60;98267.59;105823;1277;107463;-72
2022/06/08 19:29:56;;;;;;;26.30;17.10;;;;;;;23.12;49.80;98267.72;105895;1277;97896;-73
2022/06/08 19:32:24;;;;;;;27.70;17.70;;;;;;;23.05;50.13;98259.84;105947;1278;95243;-72